Time,TemperatureF,DewpointF,PressureIn,WindDirection,WindDirectionDegrees,WindSpeedMPH,WindSpeedGustMPH,Humidity,HourlyPrecipIn,Conditions,Clouds,dailyrainin,SoftwareType,DateUTC
2013-07-26 00:01:00,68.4,67.2,30.03,East,83,0.0,0.0,96,0.00,RA,,0.00,WeatherDisplay:10.37,2013-07-26 04:01:00,
2013-07-26 00:06:00,68.2,67.0,30.03,East,83,0.0,0.0,96,0.00,RA,,0.00,WeatherDisplay:10.37,2013-07-26 04:06:00,
2013-07-26 00:11:00,68.1,66.9,30.03,East,83,0.0,0.0,96,0.00,CLR,,0.00,WeatherDisplay:10.37,2013-07-26 04:11:00,
2013-07-26 00:16:00,67.9,67.0,30.03,East,83,0.0,0.0,97,0.00,CLR,,0.00,WeatherDisplay:10.37,2013-07-26 04:16:00,
2013-07-26 00:21:00,67.8,66.9,30.03,East,83,0.0,0.0,97,0.00,CLR,,0.00,WeatherDisplay:10.37,2013-07-26 04:21:00,
2013-07-26 00:26:00,67.6,66.7,30.03,East,83,0.0,0.0,97,0.00,CLR,,0.00,WeatherDisplay:10.37,2013-07-26 04:26:00,
2013-07-26 00:31:00,67.5,66.6,30.03,East,83,0.0,0.0,97,0.00,CLR,,0.00,WeatherDisplay:10.37,2013-07-26 04:31:00,
2013-07-26 00:36:00,67.5,66.6,30.04,East,83,0.0,0.0,97,0.00,CLR,,0.00,WeatherDisplay:10.37,2013-07-26 04:36:00,
2013-07-26 00:41:00,67.4,66.5,30.04,East,83,0.0,0.0,97,0.00,CLR,,0.00,WeatherDisplay:10.37,2013-07-26 04:41:00,
2013-07-26 00:47:00,67.4,66.5,30.04,East,83,0.0,0.0,97,0.00,CLR,,0.00,WeatherDisplay:10.37,2013-07-26 04:47:00,
2013-07-26 00:52:00,67.4,66.5,30.04,East,83,0.0,0.0,97,0.00,CLR,,0.00,WeatherDisplay:10.37,2013-07-26 04:52:00,
2013-07-26 00:57:00,67.3,66.4,30.04,East,83,0.0,0.0,97,0.00,CLR,,0.00,WeatherDisplay:10.37,2013-07-26 04:57:00,
2013-07-26 01:02:00,67.3,66.4,30.04,East,83,0.0,0.0,97,0.00,CLR,,0.00,WeatherDisplay:10.37,2013-07-26 05:02:00,
2013-07-26 01:07:00,67.4,66.5,30.04,East,83,0.0,0.0,97,0.00,CLR,,0.00,WeatherDisplay:10.37,2013-07-26 05:07:00,
2013-07-26 01:12:00,67.5,66.6,30.03,East,83,0.0,0.0,97,0.00,CLR,,0.00,WeatherDisplay:10.37,2013-07-26 05:12:00,
2013-07-26 01:17:00,67.5,66.6,30.03,East,83,0.0,0.0,97,0.00,CLR,,0.00,WeatherDisplay:10.37,2013-07-26 05:17:00,
2013-07-26 01:22:00,67.4,66.5,30.03,East,83,0.0,0.0,97,0.00,CLR,,0.00,WeatherDisplay:10.37,2013-07-26 05:22:00,
2013-07-26 01:27:00,67.4,66.5,30.03,East,83,0.0,0.0,97,0.00,CLR,,0.00,WeatherDisplay:10.37,2013-07-26 05:27:00,
2013-07-26 01:32:00,67.2,66.3,30.03,East,83,0.0,0.0,97,0.00,CLR,,0.00,WeatherDisplay:10.37,2013-07-26 05:32:00,
2013-07-26 01:37:00,67.1,66.2,30.03,East,83,0.0,0.0,97,0.00,CLR,,0.00,WeatherDisplay:10.37,2013-07-26 05:37:00,
2013-07-26 01:42:00,66.9,66.0,30.03,East,83,0.0,0.0,97,0.00,CLR,,0.00,WeatherDisplay:10.37,2013-07-26 05:42:00,
2013-07-26 01:47:00,66.8,65.9,30.03,East,83,0.0,0.0,97,0.00,CLR,,0.00,WeatherDisplay:10.37,2013-07-26 05:47:00,
2013-07-26 01:52:00,66.6,65.7,30.03,East,83,0.0,0.0,97,0.00,CLR,,0.00,WeatherDisplay:10.37,2013-07-26 05:52:00,
2013-07-26 01:57:00,66.5,65.6,30.03,East,83,0.0,0.0,97,0.00,CLR,,0.00,WeatherDisplay:10.37,2013-07-26 05:57:00,
2013-07-26 02:02:00,66.4,65.5,30.03,East,83,0.0,0.0,97,0.00,CLR,,0.00,WeatherDisplay:10.37,2013-07-26 06:02:00,
2013-07-26 02:07:00,66.5,65.9,30.03,East,83,0.0,0.0,98,0.00,CLR,,0.00,WeatherDisplay:10.37,2013-07-26 06:07:00,
2013-07-26 02:12:00,66.6,66.0,30.03,East,83,0.0,0.0,98,0.00,CLR,,0.00,WeatherDisplay:10.37,2013-07-26 06:12:00,
2013-07-26 02:17:00,66.7,66.1,30.03,East,83,0.0,0.0,98,0.00,CLR,,0.00,WeatherDisplay:10.37,2013-07-26 06:17:00,
2013-07-26 02:22:00,66.7,66.1,30.03,East,83,0.0,0.0,98,0.00,CLR,,0.00,WeatherDisplay:10.37,2013-07-26 06:22:00,
2013-07-26 02:27:00,66.7,66.1,30.03,East,83,0.0,0.0,98,0.00,CLR,,0.00,WeatherDisplay:10.37,2013-07-26 06:27:00,
2013-07-26 02:32:00,66.8,66.2,30.03,East,83,0.0,0.0,98,0.00,CLR,,0.00,WeatherDisplay:10.37,2013-07-26 06:32:00,
2013-07-26 02:37:00,66.8,66.2,30.04,East,83,0.0,0.0,98,0.00,CLR,,0.00,WeatherDisplay:10.37,2013-07-26 06:37:00,
2013-07-26 02:42:00,66.8,66.2,30.04,East,83,0.0,0.0,98,0.00,CLR,,0.00,WeatherDisplay:10.37,2013-07-26 06:42:00,
2013-07-26 02:47:00,66.7,66.1,30.04,East,83,0.0,0.0,98,0.00,CLR,,0.00,WeatherDisplay:10.37,2013-07-26 06:47:00,
2013-07-26 02:52:00,66.6,66.0,30.04,East,83,0.0,0.0,98,0.00,CLR,,0.00,WeatherDisplay:10.37,2013-07-26 06:52:00,
2013-07-26 02:57:00,66.5,65.9,30.04,East,83,0.0,0.0,98,0.00,CLR,,0.00,WeatherDisplay:10.37,2013-07-26 06:57:00,
2013-07-26 03:02:00,66.3,65.7,30.04,East,83,0.0,0.0,98,0.00,CLR,,0.00,WeatherDisplay:10.37,2013-07-26 07:02:00,
2013-07-26 03:07:00,66.2,65.6,30.04,East,83,0.0,0.0,98,0.00,CLR,,0.00,WeatherDisplay:10.37,2013-07-26 07:07:00,
2013-07-26 03:12:00,66.3,65.7,30.04,East,83,0.0,0.0,98,0.00,CLR,,0.00,WeatherDisplay:10.37,2013-07-26 07:12:00,
2013-07-26 03:17:00,66.4,65.8,30.04,East,83,0.0,0.0,98,0.00,CLR,,0.00,WeatherDisplay:10.37,2013-07-26 07:17:00,
2013-07-26 03:22:00,66.4,65.8,30.04,East,83,0.0,0.0,98,0.00,CLR,,0.00,WeatherDisplay:10.37,2013-07-26 07:22:00,
2013-07-26 03:27:00,66.5,65.9,30.04,East,83,0.0,0.0,98,0.00,CLR,,0.00,WeatherDisplay:10.37,2013-07-26 07:27:00,
2013-07-26 03:32:00,66.5,65.9,30.03,East,83,0.0,0.0,98,0.00,CLR,,0.00,WeatherDisplay:10.37,2013-07-26 07:32:00,
2013-07-26 03:37:00,66.5,65.9,30.03,East,83,0.0,0.0,98,0.00,CLR,,0.00,WeatherDisplay:10.37,2013-07-26 07:37:00,
2013-07-26 03:42:00,66.5,65.9,30.03,East,83,0.0,0.0,98,0.00,CLR,,0.00,WeatherDisplay:10.37,2013-07-26 07:42:00,
2013-07-26 03:47:00,66.3,65.7,30.03,East,83,0.0,0.0,98,0.00,CLR,,0.00,WeatherDisplay:10.37,2013-07-26 07:47:00,
2013-07-26 03:52:00,66.2,65.6,30.03,East,83,0.0,0.0,98,0.00,CLR,,0.00,WeatherDisplay:10.37,2013-07-26 07:52:00,
2013-07-26 03:57:00,66.0,65.4,30.03,East,83,0.0,0.0,98,0.00,CLR,,0.00,WeatherDisplay:10.37,2013-07-26 07:57:00,
2013-07-26 04:02:00,66.2,65.6,30.04,East,83,0.0,0.0,98,0.00,CLR,,0.00,WeatherDisplay:10.37,2013-07-26 08:02:00,
2013-07-26 04:07:00,66.2,65.6,30.04,East,83,0.0,0.0,98,0.00,CLR,,0.00,WeatherDisplay:10.37,2013-07-26 08:07:00,
2013-07-26 04:12:00,66.3,65.7,30.04,East,83,0.0,0.0,98,0.00,CLR,,0.00,WeatherDisplay:10.37,2013-07-26 08:12:00,
2013-07-26 04:17:00,66.4,65.8,30.04,East,83,0.0,0.0,98,0.00,CLR,,0.00,WeatherDisplay:10.37,2013-07-26 08:17:00,
2013-07-26 04:22:00,66.4,65.8,30.04,East,83,0.0,0.0,98,0.00,CLR,,0.00,WeatherDisplay:10.37,2013-07-26 08:22:00,
2013-07-26 04:27:00,66.5,65.9,30.04,East,83,0.0,0.0,98,0.00,CLR,,0.00,WeatherDisplay:10.37,2013-07-26 08:27:00,
2013-07-26 04:32:00,66.6,66.0,30.04,East,83,0.0,0.0,98,0.00,CLR,,0.00,WeatherDisplay:10.37,2013-07-26 08:32:00,
2013-07-26 04:37:00,66.6,66.0,30.04,East,83,0.0,0.0,98,0.00,CLR,,0.00,WeatherDisplay:10.37,2013-07-26 08:37:00,
2013-07-26 04:42:00,66.6,66.0,30.05,East,83,0.0,0.0,98,0.00,CLR,,0.00,WeatherDisplay:10.37,2013-07-26 08:42:00,
2013-07-26 04:47:00,66.6,66.0,30.05,East,83,0.0,0.0,98,0.00,CLR,,0.00,WeatherDisplay:10.37,2013-07-26 08:47:00,
2013-07-26 04:52:00,66.7,66.1,30.05,East,83,0.0,0.0,98,0.00,CLR,,0.00,WeatherDisplay:10.37,2013-07-26 08:52:00,
2013-07-26 04:57:00,66.8,66.2,30.05,East,83,0.0,0.0,98,0.00,CLR,,0.00,WeatherDisplay:10.37,2013-07-26 08:57:00,
2013-07-26 05:02:00,66.8,66.2,30.05,East,83,0.0,0.0,98,0.00,CLR,,0.00,WeatherDisplay:10.37,2013-07-26 09:02:00,
2013-07-26 05:07:00,66.9,66.3,30.05,East,83,0.0,0.0,98,0.00,CLR,,0.00,WeatherDisplay:10.37,2013-07-26 09:07:00,
2013-07-26 05:12:00,67.0,66.4,30.05,East,83,0.0,0.0,98,0.00,CLR,,0.00,WeatherDisplay:10.37,2013-07-26 09:12:00,
2013-07-26 05:17:00,67.1,66.5,30.06,East,83,0.0,0.0,98,0.00,CLR,,0.00,WeatherDisplay:10.37,2013-07-26 09:17:00,
2013-07-26 05:22:00,67.1,66.5,30.06,East,83,0.0,0.0,98,0.00,CLR,,0.00,WeatherDisplay:10.37,2013-07-26 09:22:00,
2013-07-26 05:27:00,67.2,66.6,30.06,East,83,0.0,0.0,98,0.00,CLR,,0.00,WeatherDisplay:10.37,2013-07-26 09:27:00,
2013-07-26 05:32:00,67.3,66.7,30.06,East,83,0.0,0.0,98,0.00,CLR,,0.00,WeatherDisplay:10.37,2013-07-26 09:32:00,
2013-07-26 05:37:00,67.4,66.8,30.06,East,83,0.0,0.0,98,0.00,CLR,,0.00,WeatherDisplay:10.37,2013-07-26 09:37:00,
2013-07-26 05:42:00,67.5,66.9,30.06,East,83,0.0,0.0,98,0.00,CLR,,0.00,WeatherDisplay:10.37,2013-07-26 09:42:00,
2013-07-26 05:47:00,67.5,66.9,30.06,East,83,0.0,0.0,98,0.00,CLR,,0.00,WeatherDisplay:10.37,2013-07-26 09:47:00,
2013-07-26 05:52:00,67.5,66.9,30.06,East,83,0.0,0.0,98,0.00,CLR,,0.00,WeatherDisplay:10.37,2013-07-26 09:52:00,
2013-07-26 05:57:00,67.4,66.8,30.07,East,83,0.0,0.0,98,0.00,CLR,,0.00,WeatherDisplay:10.37,2013-07-26 09:57:00,
2013-07-26 06:02:00,67.3,66.7,30.07,East,83,0.0,0.0,98,0.00,CLR,,0.00,WeatherDisplay:10.37,2013-07-26 10:02:00,
2013-07-26 06:08:00,67.2,66.6,30.07,East,83,0.0,0.0,98,0.00,CLR,,0.00,WeatherDisplay:10.37,2013-07-26 10:08:00,
2013-07-26 06:13:00,67.1,66.5,30.07,East,83,0.0,0.0,98,0.00,CLR,,0.00,WeatherDisplay:10.37,2013-07-26 10:13:00,
2013-07-26 06:18:00,66.9,66.3,30.07,East,83,0.0,0.0,98,0.00,CLR,,0.00,WeatherDisplay:10.37,2013-07-26 10:18:00,
2013-07-26 06:23:00,66.7,66.1,30.07,East,83,0.0,0.0,98,0.00,CLR,,0.00,WeatherDisplay:10.37,2013-07-26 10:23:00,
2013-07-26 06:28:00,66.5,65.9,30.07,East,83,0.0,0.0,98,0.00,CLR,,0.00,WeatherDisplay:10.37,2013-07-26 10:28:00,
2013-07-26 06:33:00,66.4,65.8,30.07,East,83,0.0,0.0,98,0.00,CLR,,0.00,WeatherDisplay:10.37,2013-07-26 10:33:00,
2013-07-26 06:38:00,66.3,65.7,30.07,East,83,0.0,0.0,98,0.00,CLR,,0.00,WeatherDisplay:10.37,2013-07-26 10:38:00,
2013-07-26 06:43:00,66.2,65.6,30.08,East,83,0.0,0.0,98,0.00,CLR,,0.00,WeatherDisplay:10.37,2013-07-26 10:43:00,
2013-07-26 06:48:00,66.0,65.4,30.07,East,83,0.0,0.0,98,0.00,CLR,,0.00,WeatherDisplay:10.37,2013-07-26 10:48:00,
2013-07-26 06:53:00,66.0,65.4,30.08,East,82,0.0,0.0,98,0.00,CLR,,0.00,WeatherDisplay:10.37,2013-07-26 10:53:00,
2013-07-26 06:58:00,66.1,65.5,30.08,SW,221,0.0,0.0,98,0.00,CLR,,0.00,WeatherDisplay:10.37,2013-07-26 10:58:00,
2013-07-26 07:03:00,66.6,66.0,30.08,SW,221,0.0,0.0,98,0.00,CLR,,0.00,WeatherDisplay:10.37,2013-07-26 11:03:00,
2013-07-26 07:08:00,67.2,66.6,30.08,SW,221,0.0,0.0,98,0.00,CLR,,0.00,WeatherDisplay:10.37,2013-07-26 11:08:00,
2013-07-26 07:13:00,67.6,67.0,30.08,SW,220,0.0,0.0,98,0.00,CLR,,0.00,WeatherDisplay:10.37,2013-07-26 11:13:00,
2013-07-26 07:18:00,67.6,67.0,30.08,SW,220,0.0,0.0,98,0.00,CLR,,0.00,WeatherDisplay:10.37,2013-07-26 11:18:00,
2013-07-26 07:23:00,67.7,67.1,30.08,SW,220,0.0,0.0,98,0.00,CLR,,0.00,WeatherDisplay:10.37,2013-07-26 11:23:00,
2013-07-26 07:28:00,67.8,67.2,30.08,SW,219,0.0,0.0,98,0.00,CLR,,0.00,WeatherDisplay:10.37,2013-07-26 11:28:00,
2013-07-26 07:33:00,67.9,67.3,30.08,SW,220,0.0,0.0,98,0.00,CLR,,0.00,WeatherDisplay:10.37,2013-07-26 11:33:00,
2013-07-26 07:38:00,68.1,67.5,30.09,SSW,212,0.0,0.0,98,0.00,CLR,,0.00,WeatherDisplay:10.37,2013-07-26 11:38:00,
2013-07-26 07:43:00,68.2,67.6,30.09,SSW,212,0.0,0.0,98,0.00,CLR,,0.00,WeatherDisplay:10.37,2013-07-26 11:43:00,
2013-07-26 07:48:00,68.6,68.0,30.08,SSW,212,0.0,0.0,98,0.00,CLR,,0.00,WeatherDisplay:10.37,2013-07-26 11:48:00,
2013-07-26 07:53:00,68.8,67.9,30.08,SSE,164,0.0,0.0,97,0.00,CLR,,0.00,WeatherDisplay:10.37,2013-07-26 11:53:00,
2013-07-26 07:58:00,68.9,68.0,30.08,SSE,164,0.0,0.0,97,0.00,CLR,,0.00,WeatherDisplay:10.37,2013-07-26 11:58:00,
2013-07-26 08:03:00,69.2,68.0,30.09,SSE,164,0.0,0.0,96,0.00,CLR,,0.00,WeatherDisplay:10.37,2013-07-26 12:03:00,
2013-07-26 08:08:00,69.9,68.7,30.09,SSE,164,0.0,0.0,96,0.00,CLR,,0.00,WeatherDisplay:10.37,2013-07-26 12:08:00,
2013-07-26 08:13:00,70.8,69.3,30.09,SSE,165,0.1,0.0,95,0.00,CLR,,0.00,WeatherDisplay:10.37,2013-07-26 12:13:00,
2013-07-26 08:18:00,71.5,69.1,30.09,East,88,0.0,0.0,92,0.00,CLR,,0.00,WeatherDisplay:10.37,2013-07-26 12:18:00,
2013-07-26 08:23:00,72.0,68.9,30.09,East,89,0.3,2.3,90,0.00,CLR,,0.00,WeatherDisplay:10.37,2013-07-26 12:23:00,
2013-07-26 08:28:00,72.0,68.9,30.09,East,86,0.1,0.0,90,0.00,CLR,,0.00,WeatherDisplay:10.37,2013-07-26 12:28:00,
2013-07-26 08:33:00,71.8,68.7,30.09,ESE,102,0.0,0.0,90,0.00,CLR,,0.00,WeatherDisplay:10.37,2013-07-26 12:33:00,
2013-07-26 08:38:00,71.8,69.0,30.10,East,101,0.0,0.0,91,0.00,CLR,,0.00,WeatherDisplay:10.37,2013-07-26 12:38:00,
2013-07-26 08:43:00,71.7,68.0,30.10,East,93,0.0,0.0,88,0.00,CLR,,0.00,WeatherDisplay:10.37,2013-07-26 12:43:00,
2013-07-26 08:48:00,71.7,68.0,30.11,East,94,0.0,0.0,88,0.00,CLR,,0.00,WeatherDisplay:10.37,2013-07-26 12:48:00,
2013-07-26 08:53:00,71.7,66.9,30.11,East,94,0.0,0.0,85,0.00,CLR,,0.00,WeatherDisplay:10.37,2013-07-26 12:53:00,
2013-07-26 08:58:00,72.0,67.2,30.12,East,94,0.0,0.0,85,0.00,CLR,,0.00,WeatherDisplay:10.37,2013-07-26 12:58:00,
2013-07-26 09:03:00,72.0,67.2,30.12,ENE,68,0.0,0.0,85,0.00,CLR,,0.00,WeatherDisplay:10.37,2013-07-26 13:03:00,
2013-07-26 09:08:00,72.0,67.2,30.12,ENE,72,0.0,0.0,85,0.00,CLR,,0.00,WeatherDisplay:10.37,2013-07-26 13:08:00,
2013-07-26 09:13:00,72.3,67.2,30.12,WSW,244,0.0,0.0,84,0.00,CLR,,0.00,WeatherDisplay:10.37,2013-07-26 13:13:00,
2013-07-26 09:18:00,73.1,68.3,30.12,East,79,0.0,0.0,85,0.00,CLR,,0.00,WeatherDisplay:10.37,2013-07-26 13:18:00,
2013-07-26 09:23:00,73.6,68.5,30.11,East,86,0.0,0.0,84,0.00,CLR,,0.00,WeatherDisplay:10.37,2013-07-26 13:23:00,
2013-07-26 09:28:00,73.8,68.0,30.11,ENE,67,0.0,0.0,82,0.00,CLR,,0.00,WeatherDisplay:10.37,2013-07-26 13:28:00,
2013-07-26 09:33:00,73.9,67.3,30.11,East,79,1.5,4.0,80,0.00,CLR,,0.00,WeatherDisplay:10.37,2013-07-26 13:33:00,
2013-07-26 09:38:00,74.1,67.9,30.11,NNE,26,0.0,0.0,81,0.00,CLR,,0.00,WeatherDisplay:10.37,2013-07-26 13:38:00,
2013-07-26 09:43:00,75.0,68.8,30.11,East,98,0.0,0.0,81,0.00,CLR,,0.00,WeatherDisplay:10.37,2013-07-26 13:43:00,
2013-07-26 09:48:00,75.6,68.3,30.11,East,89,0.0,0.0,78,0.00,CLR,,0.00,WeatherDisplay:10.37,2013-07-26 13:48:00,
2013-07-26 09:53:00,76.1,67.6,30.11,East,83,0.0,0.0,75,0.00,CLR,,0.00,WeatherDisplay:10.37,2013-07-26 13:53:00,
2013-07-26 09:58:00,75.8,66.9,30.11,East,91,0.3,3.5,74,0.00,CLR,,0.00,WeatherDisplay:10.37,2013-07-26 13:58:00,
2013-07-26 10:03:00,76.2,66.1,30.11,SW,229,0.2,2.3,71,0.00,CLR,,0.00,WeatherDisplay:10.37,2013-07-26 14:03:00,
2013-07-26 10:08:00,76.5,66.8,30.11,East,79,0.1,0.0,72,0.00,CLR,,0.00,WeatherDisplay:10.37,2013-07-26 14:08:00,
2013-07-26 10:13:00,76.9,66.4,30.11,East,90,0.0,0.0,70,0.00,CLR,,0.00,WeatherDisplay:10.37,2013-07-26 14:13:00,
2013-07-26 10:18:00,77.4,66.4,30.11,ESE,117,0.0,0.0,69,0.00,CLR,,0.00,WeatherDisplay:10.37,2013-07-26 14:18:00,
2013-07-26 10:23:00,77.6,66.2,30.11,East,94,1.7,3.5,68,0.00,CLR,,0.00,WeatherDisplay:10.37,2013-07-26 14:23:00,
2013-07-26 10:28:00,77.6,68.3,30.10,ESE,111,1.2,3.5,73,0.00,CLR,,0.00,WeatherDisplay:10.37,2013-07-26 14:28:00,
2013-07-26 10:34:00,78.0,67.0,30.10,East,86,2.6,4.0,69,0.00,CLR,,0.00,WeatherDisplay:10.37,2013-07-26 14:34:00,
2013-07-26 10:39:00,78.1,67.9,30.10,WSW,255,0.2,1.2,71,0.00,CLR,,0.00,WeatherDisplay:10.37,2013-07-26 14:39:00,
2013-07-26 10:44:00,78.8,68.2,30.10,East,81,0.0,0.0,70,0.00,CLR,,0.00,WeatherDisplay:10.37,2013-07-26 14:44:00,
2013-07-26 10:49:00,79.0,68.0,30.10,East,81,0.0,0.0,69,0.00,CLR,,0.00,WeatherDisplay:10.37,2013-07-26 14:49:00,
2013-07-26 10:54:00,79.4,67.9,30.10,East,83,0.0,0.0,68,0.00,CLR,,0.00,WeatherDisplay:10.37,2013-07-26 14:54:00,
2013-07-26 10:59:00,79.2,67.3,30.10,ENE,73,0.0,2.3,67,0.00,CLR,,0.00,WeatherDisplay:10.37,2013-07-26 14:59:00,
2013-07-26 11:04:00,78.9,67.0,30.10,East,85,1.9,3.5,67,0.00,CLR,,0.00,WeatherDisplay:10.37,2013-07-26 15:04:00,
2013-07-26 11:09:00,79.8,68.7,30.10,SW,232,0.0,0.0,69,0.00,CLR,,0.00,WeatherDisplay:10.37,2013-07-26 15:09:00,
2013-07-26 11:14:00,80.3,67.0,30.10,NW,309,0.7,3.5,64,0.00,CLR,,0.00,WeatherDisplay:10.37,2013-07-26 15:14:00,
2013-07-26 11:19:00,80.6,67.7,30.10,ESE,103,0.0,0.0,65,0.00,CLR,,0.00,WeatherDisplay:10.37,2013-07-26 15:19:00,
2013-07-26 11:24:00,81.2,66.5,30.10,ENE,77,0.3,3.0,61,0.00,CLR,,0.00,WeatherDisplay:10.37,2013-07-26 15:24:00,
2013-07-26 11:29:00,80.5,66.7,30.10,East,91,0.0,1.2,63,0.00,CLR,,0.00,WeatherDisplay:10.37,2013-07-26 15:29:00,
2013-07-26 11:34:00,80.7,66.9,30.11,WNW,301,0.0,0.0,63,0.00,CLR,,0.00,WeatherDisplay:10.37,2013-07-26 15:34:00,
2013-07-26 11:39:00,81.3,68.9,30.11,SSW,198,0.0,0.0,66,0.00,CLR,,0.00,WeatherDisplay:10.37,2013-07-26 15:39:00,
2013-07-26 11:44:00,82.3,68.0,30.10,SW,233,0.0,1.2,62,0.00,CLR,,0.00,WeatherDisplay:10.37,2013-07-26 15:44:00,
2013-07-26 11:49:00,82.4,68.1,30.10,SW,236,0.6,3.5,62,0.00,CLR,,0.00,WeatherDisplay:10.37,2013-07-26 15:49:00,
2013-07-26 11:54:00,81.8,68.4,30.10,East,79,0.5,3.5,64,0.00,CLR,,0.00,WeatherDisplay:10.37,2013-07-26 15:54:00,
2013-07-26 11:59:00,82.2,68.3,30.10,East,92,0.2,3.5,63,0.00,CLR,,0.00,WeatherDisplay:10.37,2013-07-26 15:59:00,
2013-07-26 12:04:00,82.4,68.5,30.09,WSW,241,1.1,2.3,63,0.00,CLR,,0.00,WeatherDisplay:10.37,2013-07-26 16:04:00,
2013-07-26 12:09:00,82.5,67.7,30.10,WSW,256,2.7,5.8,61,0.00,CLR,,0.00,WeatherDisplay:10.37,2013-07-26 16:09:00,
2013-07-26 12:14:00,82.3,69.4,30.09,East,90,0.8,2.0,65,0.00,CLR,,0.00,WeatherDisplay:10.37,2013-07-26 16:14:00,
2013-07-26 12:19:00,82.4,67.1,30.09,SW,219,1.0,2.3,60,0.00,CLR,,0.00,WeatherDisplay:10.37,2013-07-26 16:19:00,
2013-07-26 12:24:00,83.2,70.7,30.09,ENE,77,1.5,4.0,66,0.00,CLR,,0.00,WeatherDisplay:10.37,2013-07-26 16:24:00,
2013-07-26 12:29:00,83.2,67.9,30.09,WSW,257,1.1,4.6,60,0.00,CLR,,0.00,WeatherDisplay:10.37,2013-07-26 16:29:00,
2013-07-26 12:34:00,83.2,66.9,30.10,SW,221,0.1,1.2,58,0.00,CLR,,0.00,WeatherDisplay:10.37,2013-07-26 16:34:00,
2013-07-26 12:39:00,82.6,66.8,30.10,ENE,69,1.8,2.3,59,0.00,CLR,,0.00,WeatherDisplay:10.37,2013-07-26 16:39:00,
2013-07-26 12:44:00,81.7,66.9,30.10,West,278,0.0,0.0,61,0.00,CLR,,0.00,WeatherDisplay:10.37,2013-07-26 16:44:00,
2013-07-26 12:49:00,82.3,71.5,30.10,SSW,199,0.0,0.0,70,0.00,CLR,,0.00,WeatherDisplay:10.37,2013-07-26 16:49:00,
2013-07-26 12:54:00,83.0,67.2,30.10,SW,232,0.0,0.0,59,0.00,CLR,,0.00,WeatherDisplay:10.37,2013-07-26 16:54:00,
2013-07-26 12:59:00,82.8,68.0,30.09,SSE,151,0.0,0.0,61,0.00,CLR,,0.00,WeatherDisplay:10.37,2013-07-26 16:59:00,
2013-07-26 13:04:00,83.0,68.2,30.10,North,360,0.0,0.0,61,0.00,CLR,,0.00,WeatherDisplay:10.37,2013-07-26 17:04:00,
2013-07-26 13:09:00,84.1,69.2,30.09,ESE,107,0.5,2.0,61,0.00,CLR,,0.00,WeatherDisplay:10.37,2013-07-26 17:09:00,
2013-07-26 13:14:00,84.0,70.0,30.10,ESE,108,0.2,1.2,63,0.00,CLR,,0.00,WeatherDisplay:10.37,2013-07-26 17:14:00,
2013-07-26 13:19:00,83.8,69.4,30.09,East,89,0.1,1.0,62,0.00,CLR,,0.00,WeatherDisplay:10.37,2013-07-26 17:19:00,
2013-07-26 13:24:00,82.7,67.4,30.09,East,101,0.0,0.0,60,0.00,CLR,,0.00,WeatherDisplay:10.37,2013-07-26 17:24:00,
2013-07-26 13:29:00,83.0,69.1,30.09,SSW,204,0.0,0.0,63,0.00,CLR,,0.00,WeatherDisplay:10.37,2013-07-26 17:29:00,
2013-07-26 13:34:00,83.8,68.9,30.09,East,91,0.1,3.5,61,0.00,CLR,,0.00,WeatherDisplay:10.37,2013-07-26 17:34:00,
2013-07-26 13:39:00,84.7,68.8,30.08,SSW,212,0.0,0.0,59,0.00,CLR,,0.00,WeatherDisplay:10.37,2013-07-26 17:39:00,
2013-07-26 13:44:00,84.6,69.2,30.08,West,261,2.2,4.6,60,0.00,CLR,,0.00,WeatherDisplay:10.37,2013-07-26 17:44:00,
2013-07-26 13:49:00,84.9,68.5,30.08,North,11,0.3,1.2,58,0.00,CLR,,0.00,WeatherDisplay:10.37,2013-07-26 17:49:00,
2013-07-26 13:54:00,84.5,68.1,30.08,WSW,254,0.5,3.5,58,0.00,CLR,,0.00,WeatherDisplay:10.37,2013-07-26 17:54:00,
2013-07-26 13:59:00,83.9,69.5,30.08,NW,314,1.5,4.0,62,0.00,CLR,,0.00,WeatherDisplay:10.37,2013-07-26 17:59:00,
2013-07-26 14:04:00,84.2,68.8,30.08,WNW,288,0.0,0.0,60,0.00,CLR,,0.00,WeatherDisplay:10.37,2013-07-26 18:04:00,
2013-07-26 14:09:00,85.1,68.7,30.08,East,84,0.0,0.0,58,0.00,CLR,,0.00,WeatherDisplay:10.37,2013-07-26 18:09:00,
2013-07-26 14:14:00,84.9,69.0,30.07,WSW,238,0.0,0.0,59,0.00,CLR,,0.00,WeatherDisplay:10.37,2013-07-26 18:14:00,
2013-07-26 14:19:00,85.3,69.8,30.07,ESE,102,0.0,0.0,60,0.00,CLR,,0.00,WeatherDisplay:10.37,2013-07-26 18:19:00,
2013-07-26 14:24:00,85.2,68.2,30.07,East,86,1.4,4.6,57,0.00,CLR,,0.00,WeatherDisplay:10.37,2013-07-26 18:24:00,
2013-07-26 14:29:00,85.5,70.5,30.07,SW,216,0.0,0.0,61,0.00,CLR,,0.00,WeatherDisplay:10.37,2013-07-26 18:29:00,
2013-07-26 14:34:00,85.6,68.6,30.07,SW,228,1.7,3.5,57,0.00,CLR,,0.00,WeatherDisplay:10.37,2013-07-26 18:34:00,
2013-07-26 14:39:00,85.0,69.6,30.07,NW,317,0.6,2.3,60,0.00,CLR,,0.00,WeatherDisplay:10.37,2013-07-26 18:39:00,
2013-07-26 14:44:00,85.2,68.8,30.07,SW,231,0.0,0.0,58,0.00,CLR,,0.00,WeatherDisplay:10.37,2013-07-26 18:44:00,
2013-07-26 14:49:00,85.4,70.4,30.07,West,259,0.0,0.0,61,0.00,CLR,,0.00,WeatherDisplay:10.37,2013-07-26 18:49:00,
2013-07-26 14:54:00,85.5,69.0,30.06,ESE,112,0.7,2.3,58,0.00,CLR,,0.00,WeatherDisplay:10.37,2013-07-26 18:54:00,
2013-07-26 14:59:00,85.7,70.2,30.06,East,91,0.0,0.0,60,0.00,CLR,,0.00,WeatherDisplay:10.37,2013-07-26 18:59:00,
2013-07-26 15:04:00,85.1,69.7,30.06,East,86,0.0,0.0,60,0.00,CLR,,0.00,WeatherDisplay:10.37,2013-07-26 19:04:00,
2013-07-26 15:09:00,84.9,69.5,30.06,SE,137,0.4,2.3,60,0.00,CLR,,0.00,WeatherDisplay:10.37,2013-07-26 19:09:00,
2013-07-26 15:14:00,84.5,69.6,30.05,East,84,0.6,2.3,61,0.00,CLR,,0.00,WeatherDisplay:10.37,2013-07-26 19:14:00,
2013-07-26 15:19:00,84.4,69.5,30.05,East,91,0.2,1.2,61,0.00,CLR,,0.00,WeatherDisplay:10.37,2013-07-26 19:19:00,
2013-07-26 15:24:00,84.7,68.8,30.05,SE,135,0.0,0.0,59,0.00,CLR,,0.00,WeatherDisplay:10.37,2013-07-26 19:24:00,
2013-07-26 15:30:00,84.7,70.7,30.05,NNW,331,0.0,0.0,63,0.00,CLR,,0.00,WeatherDisplay:10.37,2013-07-26 19:30:00,
2013-07-26 15:35:00,85.2,70.7,30.05,NNE,27,0.1,2.3,62,0.00,CLR,,0.00,WeatherDisplay:10.37,2013-07-26 19:35:00,
2013-07-26 15:40:00,85.8,69.8,30.05,South,181,0.7,2.3,59,0.00,CLR,,0.00,WeatherDisplay:10.37,2013-07-26 19:40:00,
2013-07-26 15:45:00,86.8,69.7,30.05,SW,236,0.0,0.0,57,0.00,CLR,,0.00,WeatherDisplay:10.37,2013-07-26 19:45:00,
2013-07-26 15:50:00,87.2,70.1,30.05,NE,39,0.5,2.3,57,0.00,CLR,,0.00,WeatherDisplay:10.37,2013-07-26 19:50:00,
2013-07-26 15:55:00,86.3,69.3,30.04,South,186,0.2,1.2,57,0.00,CLR,,0.00,WeatherDisplay:10.37,2013-07-26 19:55:00,
2013-07-26 16:00:00,86.5,70.0,30.04,ESE,115,0.2,1.2,58,0.00,CLR,,0.00,WeatherDisplay:10.37,2013-07-26 20:00:00,
2013-07-26 16:05:00,86.2,69.2,30.04,East,86,0.9,2.0,57,0.00,CLR,,0.00,WeatherDisplay:10.37,2013-07-26 20:05:00,
2013-07-26 16:10:00,84.5,68.6,30.04,NE,35,0.5,2.3,59,0.00,CLR,,0.00,WeatherDisplay:10.37,2013-07-26 20:10:00,
2013-07-26 16:15:00,83.7,70.2,30.04,East,92,0.0,0.0,64,0.00,CLR,,0.00,WeatherDisplay:10.37,2013-07-26 20:15:00,
2013-07-26 16:20:00,84.3,69.4,30.04,ENE,60,0.8,2.0,61,0.00,CLR,,0.00,WeatherDisplay:10.37,2013-07-26 20:20:00,
2013-07-26 16:25:00,84.3,69.4,30.04,SE,141,0.0,0.0,61,0.00,CLR,,0.00,WeatherDisplay:10.37,2013-07-26 20:25:00,
2013-07-26 16:30:00,84.6,70.6,30.03,East,89,0.1,1.2,63,0.00,CLR,,0.00,WeatherDisplay:10.37,2013-07-26 20:30:00,
2013-07-26 16:35:00,85.2,69.3,30.03,East,79,0.0,0.0,59,0.00,CLR,,0.00,WeatherDisplay:10.37,2013-07-26 20:35:00,
2013-07-26 16:40:00,85.5,70.0,30.03,ENE,66,0.1,2.3,60,0.00,CLR,,0.00,WeatherDisplay:10.37,2013-07-26 20:40:00,
2013-07-26 16:45:00,85.4,70.4,30.03,East,94,0.1,1.0,61,0.00,CLR,,0.00,WeatherDisplay:10.37,2013-07-26 20:45:00,
2013-07-26 16:50:00,85.9,69.4,30.03,South,179,1.1,2.3,58,0.00,CLR,,0.00,WeatherDisplay:10.37,2013-07-26 20:50:00,
2013-07-26 16:55:00,85.9,69.9,30.03,SW,215,0.0,0.0,59,0.00,CLR,,0.00,WeatherDisplay:10.37,2013-07-26 20:55:00,
2013-07-26 17:00:00,85.9,69.9,30.03,WNW,283,0.0,0.0,59,0.00,CLR,,0.00,WeatherDisplay:10.37,2013-07-26 21:00:00,
2013-07-26 17:05:00,85.4,69.4,30.03,ESE,108,0.0,0.0,59,0.00,CLR,,0.00,WeatherDisplay:10.37,2013-07-26 21:05:00,
2013-07-26 17:10:00,85.9,70.9,30.03,WNW,295,0.0,0.0,61,0.00,CLR,,0.00,WeatherDisplay:10.37,2013-07-26 21:10:00,
2013-07-26 17:15:00,86.8,71.2,30.03,East,90,0.0,0.0,60,0.00,CLR,,0.00,WeatherDisplay:10.37,2013-07-26 21:15:00,
2013-07-26 17:20:00,86.5,70.5,30.03,West,262,0.0,0.0,59,0.00,CLR,,0.00,WeatherDisplay:10.37,2013-07-26 21:20:00,
2013-07-26 17:25:00,86.2,70.2,30.02,East,89,0.0,0.0,59,0.00,CLR,,0.00,WeatherDisplay:10.37,2013-07-26 21:25:00,
2013-07-26 17:30:00,85.5,69.0,30.02,West,276,0.8,2.3,58,0.00,CLR,,0.00,WeatherDisplay:10.37,2013-07-26 21:30:00,
2013-07-26 17:35:00,85.8,69.8,30.02,ENE,76,1.3,5.8,59,0.00,CLR,,0.00,WeatherDisplay:10.37,2013-07-26 21:35:00,
2013-07-26 17:40:00,85.7,69.7,30.02,SW,236,0.5,1.2,59,0.00,CLR,,0.00,WeatherDisplay:10.37,2013-07-26 21:40:00,
2013-07-26 17:45:00,86.1,69.6,30.01,East,91,2.2,4.6,58,0.00,CLR,,0.00,WeatherDisplay:10.37,2013-07-26 21:45:00,
2013-07-26 17:50:00,86.0,70.0,30.01,WNW,288,1.0,3.0,59,0.00,CLR,,0.00,WeatherDisplay:10.37,2013-07-26 21:50:00,
2013-07-26 17:55:00,86.1,70.1,30.01,SE,135,0.9,1.2,59,0.00,CLR,,0.00,WeatherDisplay:10.37,2013-07-26 21:55:00,
2013-07-26 18:00:00,86.2,70.2,30.01,NE,40,1.2,1.2,59,0.00,CLR,,0.00,WeatherDisplay:10.37,2013-07-26 22:00:00,
2013-07-26 18:05:00,85.8,69.3,30.01,SSW,202,0.4,2.3,58,0.00,CLR,,0.00,WeatherDisplay:10.37,2013-07-26 22:05:00,
2013-07-26 18:10:00,85.8,70.3,30.01,East,86,0.0,1.2,60,0.00,CLR,,0.00,WeatherDisplay:10.37,2013-07-26 22:10:00,
2013-07-26 18:15:00,85.7,71.2,30.01,East,94,0.0,0.0,62,0.00,CLR,,0.00,WeatherDisplay:10.37,2013-07-26 22:15:00,
2013-07-26 18:20:00,85.5,71.5,30.01,WNW,302,0.5,1.2,63,0.00,CLR,,0.00,WeatherDisplay:10.37,2013-07-26 22:20:00,
2013-07-26 18:25:00,85.2,69.7,30.01,ESE,105,0.0,0.0,60,0.00,CLR,,0.00,WeatherDisplay:10.37,2013-07-26 22:25:00,
2013-07-26 18:30:00,84.6,69.2,30.01,NNW,343,0.0,0.0,60,0.00,CLR,,0.00,WeatherDisplay:10.37,2013-07-26 22:30:00,
2013-07-26 18:35:00,84.1,69.2,30.01,SE,136,0.0,0.0,61,0.00,CLR,,0.00,WeatherDisplay:10.37,2013-07-26 22:35:00,
2013-07-26 18:40:00,83.8,70.8,30.01,SSE,162,0.0,0.0,65,0.00,CLR,,0.00,WeatherDisplay:10.37,2013-07-26 22:40:00,
2013-07-26 18:45:00,83.4,69.9,30.01,SSE,154,0.7,2.0,64,0.00,CLR,,0.00,WeatherDisplay:10.37,2013-07-26 22:45:00,
2013-07-26 18:50:00,82.9,69.9,30.01,ESE,110,0.5,0.0,65,0.00,CLR,,0.00,WeatherDisplay:10.37,2013-07-26 22:50:00,
2013-07-26 18:55:00,82.7,70.6,30.01,WSW,247,0.0,0.0,67,0.00,CLR,,0.00,WeatherDisplay:10.37,2013-07-26 22:55:00,
2013-07-26 19:00:00,82.3,69.8,30.02,SE,129,0.0,0.0,66,0.00,CLR,,0.00,WeatherDisplay:10.37,2013-07-26 23:00:00,
2013-07-26 19:05:00,82.1,70.9,30.01,SW,214,0.0,0.0,69,0.00,CLR,,0.00,WeatherDisplay:10.37,2013-07-26 23:05:00,
2013-07-26 19:10:00,81.7,70.1,30.02,ESE,110,0.0,0.0,68,0.00,CLR,,0.00,WeatherDisplay:10.37,2013-07-26 23:10:00,
2013-07-26 19:15:00,81.4,69.8,30.02,SW,224,0.0,0.0,68,0.00,CLR,,0.00,WeatherDisplay:10.37,2013-07-26 23:15:00,
2013-07-26 19:20:00,81.3,70.6,30.02,SW,232,0.0,0.0,70,0.00,CLR,,0.00,WeatherDisplay:10.37,2013-07-26 23:20:00,
2013-07-26 19:25:00,80.8,70.5,30.02,SW,232,0.0,0.0,71,0.00,CLR,,0.00,WeatherDisplay:10.37,2013-07-26 23:25:00,
2013-07-26 19:30:00,80.1,71.5,30.01,SW,233,0.0,0.0,75,0.00,CLR,,0.00,WeatherDisplay:10.37,2013-07-26 23:30:00,
2013-07-26 19:35:00,79.1,71.3,30.02,SW,233,0.0,0.0,77,0.00,CLR,,0.00,WeatherDisplay:10.37,2013-07-26 23:35:00,
2013-07-26 19:40:00,78.2,71.9,30.02,SW,233,0.0,0.0,81,0.00,CLR,,0.00,WeatherDisplay:10.37,2013-07-26 23:40:00,
2013-07-26 19:45:00,77.6,72.0,30.02,SW,233,0.0,0.0,83,0.00,CLR,,0.00,WeatherDisplay:10.37,2013-07-26 23:45:00,
2013-07-26 19:50:00,77.0,71.4,30.01,SW,233,0.0,0.0,83,0.00,CLR,,0.00,WeatherDisplay:10.37,2013-07-26 23:50:00,
2013-07-26 19:55:00,76.5,71.7,30.02,SW,233,0.0,0.0,85,0.00,CLR,,0.00,WeatherDisplay:10.37,2013-07-26 23:55:00,
2013-07-26 20:00:00,76.0,71.5,30.02,SW,233,0.0,0.0,86,0.00,CLR,,0.00,WeatherDisplay:10.37,2013-07-27 00:00:00,
2013-07-26 20:05:00,75.5,70.7,30.01,SW,233,0.0,0.0,85,0.00,CLR,,0.00,WeatherDisplay:10.37,2013-07-27 00:05:00,
2013-07-26 20:10:00,75.1,71.3,30.01,SW,233,0.0,0.0,88,0.00,CLR,,0.00,WeatherDisplay:10.37,2013-07-27 00:10:00,
2013-07-26 20:15:00,74.6,70.5,30.02,SW,233,0.0,0.0,87,0.00,CLR,,0.00,WeatherDisplay:10.37,2013-07-27 00:15:00,
2013-07-26 20:21:00,74.3,70.8,30.01,SW,233,0.0,0.0,89,0.00,CLR,,0.00,WeatherDisplay:10.37,2013-07-27 00:21:00,
2013-07-26 20:26:00,73.9,70.5,30.01,SW,233,0.0,0.0,89,0.00,CLR,,0.00,WeatherDisplay:10.37,2013-07-27 00:26:00,
2013-07-26 20:31:00,73.5,70.4,30.02,SW,233,0.0,0.0,90,0.00,CLR,,0.00,WeatherDisplay:10.37,2013-07-27 00:31:00,
2013-07-26 20:36:00,72.9,70.1,30.02,SW,233,0.0,0.0,91,0.00,CLR,,0.00,WeatherDisplay:10.37,2013-07-27 00:36:00,
2013-07-26 20:41:00,72.6,70.1,30.02,SW,233,0.0,0.0,92,0.00,CLR,,0.00,WeatherDisplay:10.37,2013-07-27 00:41:00,
2013-07-26 20:46:00,72.3,69.8,30.02,SW,233,0.0,0.0,92,0.00,CLR,,0.00,WeatherDisplay:10.37,2013-07-27 00:46:00,
2013-07-26 20:51:00,72.0,69.5,30.02,SW,233,0.0,0.0,92,0.00,CLR,,0.00,WeatherDisplay:10.37,2013-07-27 00:51:00,
2013-07-26 20:56:00,71.8,69.7,30.02,SW,233,0.0,0.0,93,0.00,CLR,,0.00,WeatherDisplay:10.37,2013-07-27 00:56:00,
2013-07-26 21:01:00,71.6,69.5,30.03,SW,233,0.0,0.0,93,0.00,CLR,,0.00,WeatherDisplay:10.37,2013-07-27 01:01:00,
2013-07-26 21:06:00,71.3,69.2,30.03,SW,233,0.0,0.0,93,0.00,CLR,,0.00,WeatherDisplay:10.37,2013-07-27 01:06:00,
2013-07-26 21:11:00,71.2,69.4,30.03,SW,233,0.0,0.0,94,0.00,CLR,,0.00,WeatherDisplay:10.37,2013-07-27 01:11:00,
2013-07-26 21:16:00,71.0,69.2,30.03,SW,233,0.0,0.0,94,0.00,CLR,,0.00,WeatherDisplay:10.37,2013-07-27 01:16:00,
2013-07-26 21:21:00,71.0,69.2,30.03,SW,233,0.0,0.0,94,0.00,CLR,,0.00,WeatherDisplay:10.37,2013-07-27 01:21:00,
2013-07-26 21:26:00,71.0,69.5,30.03,SW,233,0.0,0.0,95,0.00,CLR,,0.00,WeatherDisplay:10.37,2013-07-27 01:26:00,
2013-07-26 21:31:00,71.0,69.5,30.03,SW,233,0.0,0.0,95,0.00,CLR,,0.00,WeatherDisplay:10.37,2013-07-27 01:31:00,
2013-07-26 21:36:00,71.0,69.5,30.03,SW,233,0.0,0.0,95,0.00,CLR,,0.00,WeatherDisplay:10.37,2013-07-27 01:36:00,
2013-07-26 21:41:00,71.0,69.5,30.03,SW,233,0.0,0.0,95,0.00,CLR,,0.00,WeatherDisplay:10.37,2013-07-27 01:41:00,
2013-07-26 21:46:00,70.9,69.4,30.03,SW,233,0.0,0.0,95,0.00,CLR,,0.00,WeatherDisplay:10.37,2013-07-27 01:46:00,
2013-07-26 21:51:00,70.7,69.2,30.03,SW,233,0.0,0.0,95,0.00,CLR,,0.00,WeatherDisplay:10.37,2013-07-27 01:51:00,
2013-07-26 21:56:00,70.5,69.0,30.03,SW,233,0.0,0.0,95,0.00,CLR,,0.00,WeatherDisplay:10.37,2013-07-27 01:56:00,
2013-07-26 22:01:00,70.5,69.0,30.04,SW,233,0.0,0.0,95,0.00,CLR,,0.00,WeatherDisplay:10.37,2013-07-27 02:01:00,
2013-07-26 22:06:00,70.2,68.7,30.04,SW,233,0.0,0.0,95,0.00,CLR,,0.00,WeatherDisplay:10.37,2013-07-27 02:06:00,
2013-07-26 22:11:00,70.1,68.9,30.04,SW,233,0.0,0.0,96,0.00,CLR,,0.00,WeatherDisplay:10.37,2013-07-27 02:11:00,
2013-07-26 22:16:00,69.9,68.7,30.03,SW,233,0.0,0.0,96,0.00,CLR,,0.00,WeatherDisplay:10.37,2013-07-27 02:16:00,
2013-07-26 22:21:00,69.7,68.5,30.03,SW,233,0.0,0.0,96,0.00,CLR,,0.00,WeatherDisplay:10.37,2013-07-27 02:21:00,
2013-07-26 22:26:00,69.6,68.4,30.03,SW,233,0.0,0.0,96,0.00,CLR,,0.00,WeatherDisplay:10.37,2013-07-27 02:26:00,
2013-07-26 22:31:00,69.5,68.3,30.04,SW,233,0.0,0.0,96,0.00,CLR,,0.00,WeatherDisplay:10.37,2013-07-27 02:31:00,
2013-07-26 22:36:00,69.3,68.1,30.03,SW,233,0.0,0.0,96,0.00,CLR,,0.00,WeatherDisplay:10.37,2013-07-27 02:36:00,
2013-07-26 22:41:00,69.2,68.0,30.04,SW,233,0.0,0.0,96,0.00,CLR,,0.00,WeatherDisplay:10.37,2013-07-27 02:41:00,
2013-07-26 22:46:00,69.2,68.0,30.04,SW,233,0.0,0.0,96,0.00,CLR,,0.00,WeatherDisplay:10.37,2013-07-27 02:46:00,
2013-07-26 22:51:00,69.1,68.2,30.04,SW,233,0.0,0.0,97,0.00,CLR,,0.00,WeatherDisplay:10.37,2013-07-27 02:51:00,
2013-07-26 22:56:00,69.0,68.1,30.04,SW,233,0.0,0.0,97,0.00,CLR,,0.00,WeatherDisplay:10.37,2013-07-27 02:56:00,
2013-07-26 23:02:00,68.9,68.0,30.04,SW,233,0.0,0.0,97,0.00,CLR,,0.00,WeatherDisplay:10.37,2013-07-27 03:02:00,
2013-07-26 23:07:00,68.9,68.0,30.03,SW,233,0.0,0.0,97,0.00,CLR,,0.00,WeatherDisplay:10.37,2013-07-27 03:07:00,
2013-07-26 23:12:00,68.7,67.8,30.04,SW,233,0.0,0.0,97,0.00,CLR,,0.00,WeatherDisplay:10.37,2013-07-27 03:12:00,
2013-07-26 23:17:00,68.7,67.8,30.04,SW,233,0.0,0.0,97,0.00,CLR,,0.00,WeatherDisplay:10.37,2013-07-27 03:17:00,
2013-07-26 23:22:00,68.6,67.7,30.04,SW,233,0.0,0.0,97,0.00,CLR,,0.00,WeatherDisplay:10.37,2013-07-27 03:22:00,
2013-07-26 23:27:00,68.5,67.6,30.04,SW,233,0.0,0.0,97,0.00,CLR,,0.00,WeatherDisplay:10.37,2013-07-27 03:27:00,
2013-07-26 23:32:00,68.4,67.5,30.04,SW,233,0.0,0.0,97,0.00,CLR,,0.00,WeatherDisplay:10.37,2013-07-27 03:32:00,
2013-07-26 23:37:00,68.4,67.5,30.04,SW,233,0.0,0.0,97,0.00,CLR,,0.00,WeatherDisplay:10.37,2013-07-27 03:37:00,
2013-07-26 23:42:00,68.3,67.4,30.04,SW,233,0.0,0.0,97,0.00,CLR,,0.00,WeatherDisplay:10.37,2013-07-27 03:42:00,
2013-07-26 23:47:00,68.4,67.5,30.04,SW,233,0.0,0.0,97,0.00,CLR,,0.00,WeatherDisplay:10.37,2013-07-27 03:47:00,
2013-07-26 23:52:00,68.4,67.5,30.04,SW,233,0.0,0.0,97,0.00,CLR,,0.00,WeatherDisplay:10.37,2013-07-27 03:52:00,
2013-07-26 23:57:00,68.4,67.5,30.04,SW,233,0.0,0.0,97,0.00,CLR,,0.00,WeatherDisplay:10.37,2013-07-27 03:57:00,